Time;durP1;ratioP1;P1;durP2;ratioP2;P2;SDS_P1;SDS_P2;PMS_P1;PMS_P2;Temp;Humidity;BMP_temperature;BMP_pressure;BME280_temperature;BME280_humidity;BME280_pressure;Samples;Min_cycle;Max_cycle;Signal;HPM_P1;HPM_P2
2021/12/04 00:01:11;;;;;;;6.03;5.53;;;;;;;-0.69;100.00;97051.50;5023623;28;20212;-72
2021/12/04 00:03:41;;;;;;;6.73;4.77;;;;;;;-0.78;100.00;97053.00;5019925;28;20329;-71
2021/12/04 00:06:13;;;;;;;4.77;4.37;;;;;;;-0.81;100.00;97050.66;4972993;28;20525;-72
2021/12/04 00:08:46;;;;;;;5.17;4.73;;;;;;;-0.71;100.00;97046.41;5025239;28;20207;-72
2021/12/04 00:11:14;;;;;;;7.17;4.60;;;;;;;-0.77;100.00;97044.25;4988742;28;20561;-71
2021/12/04 00:13:42;;;;;;;4.87;4.33;;;;;;;-0.88;100.00;97030.31;5000733;28;20251;-71
2021/12/04 00:16:12;;;;;;;5.10;4.60;;;;;;;-0.70;100.00;97029.84;4993341;28;20389;-71
2021/12/04 00:18:40;;;;;;;5.00;4.60;;;;;;;-0.74;100.00;97016.25;5029362;28;20446;-72
2021/12/04 00:21:09;;;;;;;6.40;4.87;;;;;;;-0.79;100.00;97009.72;4939243;28;20219;-71
2021/12/04 00:23:37;;;;;;;4.63;4.33;;;;;;;-0.80;100.00;97008.88;5017185;28;20216;-72
2021/12/04 00:26:05;;;;;;;4.20;3.77;;;;;;;-0.77;100.00;97007.84;5017847;28;20199;-71
2021/12/04 00:28:33;;;;;;;5.00;4.60;;;;;;;-0.67;100.00;97000.16;4975779;28;20673;-71
2021/12/04 00:31:07;;;;;;;5.27;4.77;;;;;;;-0.62;100.00;97001.44;5015529;28;20200;-71
2021/12/04 00:33:38;;;;;;;4.27;3.90;;;;;;;-0.69;100.00;97000.25;5001198;28;20228;-72
2021/12/04 00:36:09;;;;;;;5.73;5.23;;;;;;;-0.68;100.00;96983.72;4975345;28;20203;-71
2021/12/04 00:49:31;;;;;;;5.40;4.90;;;;;;;-0.76;100.00;96988.69;5019703;28;21471;-72
2021/12/04 00:51:59;;;;;;;4.80;4.40;;;;;;;-0.78;100.00;96977.56;4940116;28;20627;-71
2021/12/04 00:54:28;;;;;;;5.03;4.63;;;;;;;-0.68;100.00;96970.69;5018663;28;20223;-72
2021/12/04 00:56:57;;;;;;;5.33;4.73;;;;;;;-0.68;100.00;96970.69;5012977;28;20208;-71
2021/12/04 00:59:26;;;;;;;4.83;4.43;;;;;;;-0.83;100.00;96964.09;5005758;28;20510;-71
2021/12/04 01:01:54;;;;;;;5.07;4.67;;;;;;;-0.73;100.00;96958.06;5000932;28;20294;-71
2021/12/04 01:04:23;;;;;;;3.80;3.60;;;;;;;-0.73;100.00;96959.81;4991401;28;20542;-72
2021/12/04 01:06:52;;;;;;;4.93;4.53;;;;;;;-0.91;100.00;96949.91;4976857;28;20622;-71
2021/12/04 01:09:22;;;;;;;5.30;4.90;;;;;;;-1.03;100.00;96946.47;4994710;28;20204;-72
2021/12/04 01:11:51;;;;;;;5.73;5.03;;;;;;;-1.08;100.00;96937.34;5029770;28;20218;-71
2021/12/04 01:14:22;;;;;;;4.70;4.30;;;;;;;-0.98;100.00;96938.28;4998155;28;20223;-72
2021/12/04 01:16:51;;;;;;;5.50;5.10;;;;;;;-0.97;100.00;96939.94;4998264;28;20644;-72
2021/12/04 01:19:20;;;;;;;6.57;5.10;;;;;;;-1.12;100.00;96933.31;4995101;28;20457;-72
2021/12/04 01:21:49;;;;;;;5.43;4.93;;;;;;;-1.26;100.00;96929.16;4965620;28;20814;-73
2021/12/04 01:24:18;;;;;;;5.60;5.17;;;;;;;-1.35;100.00;96921.13;5019519;28;20569;-71
2021/12/04 01:26:47;;;;;;;5.10;4.40;;;;;;;-1.28;100.00;96918.91;5010940;28;20421;-72
2021/12/04 01:29:15;;;;;;;5.30;4.90;;;;;;;-1.26;100.00;96914.41;5028756;28;20266;-72
2021/12/04 01:31:43;;;;;;;5.03;4.70;;;;;;;-1.30;100.00;96915.59;4992794;28;21153;-72
2021/12/04 01:34:11;;;;;;;5.23;4.77;;;;;;;-1.40;100.00;96912.84;5027634;28;20231;-71
2021/12/04 01:36:40;;;;;;;6.03;5.10;;;;;;;-1.32;100.00;96914.88;4997028;28;22769;-72
2021/12/04 01:39:08;;;;;;;5.83;5.23;;;;;;;-1.31;100.00;96906.13;4980534;28;20216;-72
2021/12/04 01:41:38;;;;;;;5.97;5.37;;;;;;;-1.32;100.00;96902.69;5016949;28;20824;-72
2021/12/04 01:44:07;;;;;;;6.77;6.10;;;;;;;-1.24;100.00;96891.72;4997012;28;21062;-71
2021/12/04 01:46:35;;;;;;;5.77;5.17;;;;;;;-1.26;100.00;96888.41;4998402;28;21165;-71
2021/12/04 01:49:03;;;;;;;6.20;5.70;;;;;;;-1.33;100.00;96879.41;5000119;28;20208;-72
2021/12/04 01:51:31;;;;;;;6.00;5.43;;;;;;;-1.35;100.00;96869.13;5026396;28;20210;-71
2021/12/04 01:54:00;;;;;;;6.10;5.53;;;;;;;-1.41;100.00;96879.16;4974078;28;20228;-72
2021/12/04 01:56:30;;;;;;;8.20;5.97;;;;;;;-1.43;100.00;96870.66;4991191;28;20218;-71
2021/12/04 01:58:59;;;;;;;6.30;5.80;;;;;;;-1.52;100.00;96857.41;5022691;28;20554;-72
2021/12/04 02:01:31;;;;;;;6.90;6.30;;;;;;;-1.49;100.00;96862.38;4984939;28;20790;-71
2021/12/04 02:03:59;;;;;;;6.10;5.60;;;;;;;-1.48;100.00;96864.03;5022598;28;20457;-71
2021/12/04 02:06:27;;;;;;;6.67;6.03;;;;;;;-1.58;100.00;96857.06;5002925;28;20450;-71
2021/12/04 02:08:55;;;;;;;6.80;6.20;;;;;;;-1.51;100.00;96861.69;5017710;28;20541;-72
2021/12/04 02:11:23;;;;;;;6.50;5.33;;;;;;;-1.57;100.00;96856.94;4964384;28;20454;-73
2021/12/04 02:13:51;;;;;;;6.93;5.90;;;;;;;-1.49;100.00;96856.38;4999859;28;20873;-72
2021/12/04 02:16:23;;;;;;;7.00;6.10;;;;;;;-1.56;100.00;96855.16;5028940;28;20449;-73
2021/12/04 02:18:51;;;;;;;6.23;5.63;;;;;;;-1.57;100.00;96858.69;4971276;28;20562;-72
2021/12/04 02:21:20;;;;;;;6.23;5.63;;;;;;;-1.54;100.00;96861.91;5021556;28;20203;-73
2021/12/04 02:23:49;;;;;;;6.63;6.03;;;;;;;-1.53;100.00;96866.16;5026293;28;20224;-73
2021/12/04 02:26:17;;;;;;;6.63;6.03;;;;;;;-1.57;100.00;96854.34;4971577;28;20215;-73
2021/12/04 02:28:46;;;;;;;7.17;5.73;;;;;;;-1.60;100.00;96844.19;5017579;28;20203;-73
2021/12/04 02:31:17;;;;;;;6.77;6.07;;;;;;;-1.52;100.00;96848.78;4992403;28;20217;-73
2021/12/04 02:33:45;;;;;;;8.10;6.20;;;;;;;-1.54;100.00;96845.47;4996125;28;20791;-73
2021/12/04 02:36:14;;;;;;;7.07;6.37;;;;;;;-1.56;100.00;96844.75;5020813;28;20215;-73
2021/12/04 02:38:46;;;;;;;7.47;6.77;;;;;;;-1.55;100.00;96842.06;4993755;28;20226;-73
2021/12/04 02:41:14;;;;;;;6.57;5.73;;;;;;;-1.63;100.00;96839.22;4966895;28;20480;-72
2021/12/04 02:43:42;;;;;;;6.53;5.93;;;;;;;-1.58;100.00;96844.91;4985539;28;20602;-73
2021/12/04 02:46:10;;;;;;;6.30;5.80;;;;;;;-1.65;100.00;96825.53;5020769;28;20449;-73
2021/12/04 02:48:39;;;;;;;6.67;6.10;;;;;;;-1.66;100.00;96816.88;5003508;28;20204;-73
2021/12/04 02:51:07;;;;;;;6.60;5.97;;;;;;;-1.55;100.00;96810.03;5000700;28;20223;-73
2021/12/04 02:53:35;;;;;;;6.63;6.00;;;;;;;-1.62;100.00;96797.53;5022684;28;21027;-73
2021/12/04 02:56:06;;;;;;;6.63;5.93;;;;;;;-1.58;100.00;96795.53;5012583;28;20203;-73
2021/12/04 02:58:35;;;;;;;7.30;6.60;;;;;;;-1.63;100.00;96789.88;5002781;28;20461;-73
2021/12/04 03:01:03;;;;;;;6.97;6.27;;;;;;;-1.54;100.00;96770.97;5019256;28;20228;-73
2021/12/04 03:03:32;;;;;;;6.47;5.87;;;;;;;-1.61;100.00;96764.59;4992628;28;21760;-73
2021/12/04 03:06:00;;;;;;;6.37;5.57;;;;;;;-1.58;100.00;96760.91;4999191;28;20747;-72
2021/12/04 03:08:28;;;;;;;6.63;6.03;;;;;;;-1.61;100.00;96764.59;5023994;28;20324;-73
2021/12/04 03:11:01;;;;;;;8.50;6.70;;;;;;;-1.60;100.00;96768.84;5029193;28;20959;-73
2021/12/04 03:13:30;;;;;;;6.50;5.90;;;;;;;-1.46;100.00;96762.59;4989760;28;20564;-73
2021/12/04 03:15:59;;;;;;;6.23;5.73;;;;;;;-1.66;100.00;96757.13;5021432;28;20222;-73
2021/12/04 03:18:28;;;;;;;6.43;5.83;;;;;;;-1.63;100.00;96751.72;4994536;28;20976;-74
2021/12/04 03:20:58;;;;;;;6.73;6.03;;;;;;;-1.70;100.00;96742.75;5023361;28;20722;-74
2021/12/04 03:23:30;;;;;;;6.93;6.27;;;;;;;-1.70;100.00;96747.13;5000086;28;20555;-74
2021/12/04 03:25:59;;;;;;;5.70;5.20;;;;;;;-1.68;100.00;96742.63;5024327;28;20207;-74
2021/12/04 03:28:32;;;;;;;6.87;6.17;;;;;;;-1.70;100.00;96737.53;4998026;28;20898;-74
2021/12/04 03:31:05;;;;;;;6.00;5.40;;;;;;;-1.67;100.00;96745.09;5029438;28;20445;-74
2021/12/04 03:41:50;;;;;;;6.60;6.00;;;;;;;-1.65;100.00;96706.03;4983873;28;20997;-74
2021/12/04 03:44:19;;;;;;;6.57;5.80;;;;;;;-1.68;100.00;96712.28;5021812;28;21088;-74
2021/12/04 03:46:48;;;;;;;6.17;5.67;;;;;;;-1.68;100.00;96701.06;5026126;28;20438;-74
2021/12/04 03:49:16;;;;;;;7.00;6.30;;;;;;;-1.63;100.00;96701.53;5002675;28;20970;-74
2021/12/04 03:54:18;;;;;;;7.67;5.53;;;;;;;-1.62;100.00;96691.00;4940875;28;20881;-74
2021/12/04 03:56:46;;;;;;;6.83;6.23;;;;;;;-1.63;100.00;96694.56;4984952;28;20625;-74
2021/12/04 03:59:14;;;;;;;7.07;6.43;;;;;;;-1.69;100.00;96684.63;4909724;28;20459;-75
2021/12/04 04:01:44;;;;;;;6.73;6.03;;;;;;;-1.61;100.00;96684.88;4982317;28;20220;-74
2021/12/04 04:04:12;;;;;;;8.97;6.73;;;;;;;-1.48;100.00;96679.53;4980215;28;20604;-75
2021/12/04 04:06:40;;;;;;;6.33;5.73;;;;;;;-1.57;100.00;96676.81;4931201;28;21074;-74
2021/12/04 04:09:08;;;;;;;6.97;6.30;;;;;;;-1.58;100.00;96672.56;4978677;28;20471;-75
2021/12/04 04:11:36;;;;;;;6.83;6.13;;;;;;;-1.54;100.00;96656.63;4960809;28;20217;-75
2021/12/04 04:14:05;;;;;;;7.03;6.37;;;;;;;-1.68;100.00;96657.72;4904354;28;20518;-74
2021/12/04 04:16:37;;;;;;;7.47;6.77;;;;;;;-1.60;100.00;96649.34;4984754;28;20932;-74
2021/12/04 04:19:07;;;;;;;6.80;6.10;;;;;;;-1.54;100.00;96643.66;4963653;28;20851;-74
2021/12/04 04:21:39;;;;;;;7.30;6.50;;;;;;;-1.64;100.00;96630.53;4935833;28;20460;-75
2021/12/04 04:24:07;;;;;;;6.10;5.60;;;;;;;-1.44;100.00;96632.50;4967795;28;20989;-75
2021/12/04 04:26:36;;;;;;;7.03;6.17;;;;;;;-1.44;100.00;96629.91;4981073;28;20459;-74
2021/12/04 04:29:04;;;;;;;6.80;6.10;;;;;;;-1.40;100.00;96632.16;4936657;28;20460;-75
2021/12/04 04:31:34;;;;;;;6.83;6.20;;;;;;;-1.43;100.00;96623.75;4922363;28;20469;-75
2021/12/04 04:34:05;;;;;;;5.77;5.27;;;;;;;-1.38;100.00;96616.44;4957438;28;20239;-75
2021/12/04 04:37:02;;;;;;;7.00;6.33;;;;;;;-1.43;100.00;96615.97;4973881;28;20197;-75
2021/12/04 04:59:26;;;;;;;6.03;5.50;;;;;;;-1.30;100.00;96606.25;4956132;28;20473;-70
2021/12/04 05:12:58;;;;;;;6.53;5.47;;;;;;;-1.38;100.00;96582.63;4983725;28;20853;-71
2021/12/04 05:15:37;;;;;;;5.33;4.90;;;;;;;-1.38;100.00;96580.03;4939672;28;20618;-70
2021/12/04 05:18:11;;;;;;;5.60;5.10;;;;;;;-1.22;100.00;96583.06;5002718;28;20977;-71
2021/12/04 05:20:40;;;;;;;6.43;4.70;;;;;;;-1.27;100.00;96574.81;4984718;28;22694;-72
2021/12/04 05:23:10;;;;;;;5.40;4.93;;;;;;;-1.25;100.00;96583.31;5010240;28;20773;-70
2021/12/04 05:25:38;;;;;;;5.83;4.70;;;;;;;-1.26;100.00;96584.25;4980543;28;20286;-70
2021/12/04 05:28:07;;;;;;;4.93;4.50;;;;;;;-1.25;100.00;96583.31;4986291;28;20454;-70
2021/12/04 05:30:37;;;;;;;5.83;5.33;;;;;;;-1.29;100.00;96586.28;4949867;28;20573;-71
2021/12/04 05:33:06;;;;;;;5.37;4.97;;;;;;;-1.28;100.00;96588.75;4993097;28;20220;-68
2021/12/04 05:35:34;;;;;;;5.50;5.00;;;;;;;-1.28;100.00;96588.75;4988091;28;20582;-70
2021/12/04 05:38:02;;;;;;;5.70;5.17;;;;;;;-1.20;100.00;96586.34;5015998;28;20450;-71
2021/12/04 05:40:30;;;;;;;5.00;4.60;;;;;;;-1.28;100.00;96578.38;4954503;28;20746;-69
2021/12/04 05:43:02;;;;;;;4.87;4.40;;;;;;;-1.28;100.00;96578.38;5008766;28;20227;-69
2021/12/04 05:45:31;;;;;;;5.50;4.97;;;;;;;-1.18;100.00;96576.66;4951859;28;20322;-69
2021/12/04 05:48:05;;;;;;;5.67;5.17;;;;;;;-1.28;100.00;96573.16;4984375;28;20555;-70
2021/12/04 05:53:26;;;;;;;5.73;4.73;;;;;;;-1.24;100.00;96573.72;4993853;28;20444;-71
2021/12/04 05:55:55;;;;;;;4.60;4.20;;;;;;;-1.29;100.00;96568.09;4973972;28;20446;-69
2021/12/04 05:58:24;;;;;;;6.07;5.07;;;;;;;-1.30;100.00;96562.06;4982183;28;20227;-69
2021/12/04 06:00:55;;;;;;;4.57;4.17;;;;;;;-1.20;100.00;96560.38;4944194;28;20798;-68
2021/12/04 06:03:24;;;;;;;4.50;4.20;;;;;;;-1.20;100.00;96562.97;4937263;28;20694;-68
2021/12/04 06:05:53;;;;;;;4.30;4.00;;;;;;;-1.22;100.00;96561.44;4938411;28;20205;-69
2021/12/04 06:08:21;;;;;;;4.97;4.63;;;;;;;-1.19;100.00;96564.59;4916454;28;20462;-67
2021/12/04 06:10:50;;;;;;;6.23;4.23;;;;;;;-1.22;100.00;96559.66;4934474;28;20300;-68
2021/12/04 06:13:18;;;;;;;4.83;4.43;;;;;;;-1.24;100.00;96564.16;4936041;28;20445;-67
2021/12/04 06:15:46;;;;;;;4.10;3.80;;;;;;;-1.18;100.00;96566.25;4906587;28;20217;-69
2021/12/04 06:18:15;;;;;;;6.07;4.37;;;;;;;-1.21;100.00;96563.91;4929392;28;20217;-67
2021/12/04 06:23:32;;;;;;;5.87;5.03;;;;;;;-1.22;100.00;96561.44;4907741;28;21667;-68
2021/12/04 06:26:00;;;;;;;5.53;5.10;;;;;;;-1.21;100.00;96556.13;4924875;28;20211;-69
2021/12/04 06:28:29;;;;;;;6.07;4.43;;;;;;;-1.06;100.00;96548.00;4952878;28;20665;-68
2021/12/04 06:30:59;;;;;;;4.60;4.20;;;;;;;-1.18;100.00;96553.25;4937716;28;20448;-67
2021/12/04 06:33:28;;;;;;;5.43;4.93;;;;;;;-1.19;100.00;96558.56;4898693;28;20276;-68
2021/12/04 06:35:57;;;;;;;4.33;3.93;;;;;;;-1.08;100.00;96557.69;4920279;28;20214;-69
2021/12/04 06:38:25;;;;;;;4.57;4.17;;;;;;;-1.00;100.00;96560.47;4932176;28;20873;-68
2021/12/04 06:40:55;;;;;;;7.17;5.30;;;;;;;-1.10;100.00;96560.44;4941938;28;20453;-70
2021/12/04 06:43:25;;;;;;;4.57;4.27;;;;;;;-0.98;100.00;96548.19;4934708;28;20452;-69
2021/12/04 06:45:58;;;;;;;4.97;4.40;;;;;;;-0.97;100.00;96555.03;4960213;28;20636;-68
2021/12/04 06:48:35;;;;;;;4.23;3.93;;;;;;;-1.10;100.00;96551.81;4873053;28;20217;-73
2021/12/04 06:51:09;;;;;;;5.23;4.83;;;;;;;-0.96;100.00;96548.88;4949745;28;20542;-72
2021/12/04 06:53:41;;;;;;;4.63;4.23;;;;;;;-0.76;100.00;96552.44;4931981;28;20425;-73
2021/12/04 06:56:11;;;;;;;5.00;4.60;;;;;;;-0.67;100.00;96550.00;4952998;28;20245;-73
2021/12/04 06:58:40;;;;;;;5.07;4.67;;;;;;;-0.69;100.00;96541.50;4946114;28;20730;-72
2021/12/04 07:01:21;;;;;;;4.80;4.40;;;;;;;-0.52;100.00;96543.50;4919118;28;20206;-72
2021/12/04 07:03:51;;;;;;;5.30;4.13;;;;;;;-0.48;100.00;96544.06;4958685;28;20461;-71
2021/12/04 07:06:20;;;;;;;5.40;4.90;;;;;;;-0.59;100.00;96535.38;4929808;28;20463;-72
2021/12/04 07:08:48;;;;;;;5.20;4.80;;;;;;;-0.53;100.00;96530.63;4954438;28;20220;-71
2021/12/04 07:11:16;;;;;;;4.43;4.13;;;;;;;-0.67;100.00;96519.59;4937830;28;20506;-75
2021/12/04 07:13:44;;;;;;;5.17;4.73;;;;;;;-0.81;100.00;96518.16;4950865;28;20505;-72
2021/12/04 07:16:16;;;;;;;6.07;5.57;;;;;;;-0.81;100.00;96517.34;4937768;28;20465;-73
2021/12/04 07:18:44;;;;;;;4.87;4.47;;;;;;;-0.78;100.00;96517.91;4929542;28;20472;-71
2021/12/04 07:21:12;;;;;;;6.37;5.77;;;;;;;-0.89;100.00;96518.81;4953366;28;20966;-72
2021/12/04 07:23:42;;;;;;;5.53;5.03;;;;;;;-0.84;100.00;96513.22;4931576;28;20824;-72
2021/12/04 07:26:10;;;;;;;6.20;5.60;;;;;;;-0.88;100.00;96510.06;4960191;28;20476;-71
2021/12/04 07:28:38;;;;;;;5.43;5.03;;;;;;;-0.86;100.00;96511.72;4937951;28;20457;-73
2021/12/04 07:31:06;;;;;;;4.97;4.57;;;;;;;-0.73;100.00;96509.72;4935666;28;20990;-72
2021/12/04 07:33:35;;;;;;;5.43;5.03;;;;;;;-0.80;100.00;96506.00;4898399;28;20229;-73
2021/12/04 07:36:04;;;;;;;5.37;4.97;;;;;;;-0.83;100.00;96503.66;4933332;28;20240;-71
2021/12/04 07:38:32;;;;;;;4.63;4.33;;;;;;;-0.73;100.00;96500.16;4960875;28;20217;-73
2021/12/04 07:41:03;;;;;;;4.43;4.03;;;;;;;-0.84;100.00;96495.00;4959536;28;20418;-73
2021/12/04 07:43:31;;;;;;;5.57;5.07;;;;;;;-0.84;100.00;96499.41;4934785;28;20492;-72
2021/12/04 07:45:59;;;;;;;4.63;4.27;;;;;;;-0.87;100.00;96497.88;4954823;28;20630;-72
2021/12/04 07:48:40;;;;;;;4.77;4.37;;;;;;;-0.81;100.00;96494.75;4924915;28;20477;-73
2021/12/04 07:51:08;;;;;;;5.17;4.87;;;;;;;-0.82;100.00;96487.09;4952352;28;20543;-68
2021/12/04 07:53:36;;;;;;;4.73;4.40;;;;;;;-0.76;100.00;96489.16;4942714;28;20728;-66
2021/12/04 07:56:06;;;;;;;5.17;4.70;;;;;;;-0.81;100.00;96486.13;4952087;28;20434;-67
2021/12/04 07:58:34;;;;;;;4.90;4.60;;;;;;;-0.74;100.00;96488.09;4934564;28;20429;-66
2021/12/04 08:01:03;;;;;;;4.93;4.63;;;;;;;-0.76;100.00;96487.41;4935135;28;21149;-68
2021/12/04 08:03:41;;;;;;;6.67;5.53;;;;;;;-0.75;100.00;96485.59;4938197;28;20670;-66
2021/12/04 08:06:09;;;;;;;6.63;6.13;;;;;;;-0.75;100.00;96485.59;4925753;28;20777;-68
2021/12/04 08:08:37;;;;;;;5.30;4.93;;;;;;;-0.75;100.00;96483.84;4952432;28;20202;-66
2021/12/04 08:11:07;;;;;;;6.30;4.90;;;;;;;-0.67;100.00;96475.38;4955496;28;20453;-67
2021/12/04 08:13:35;;;;;;;5.27;4.87;;;;;;;-0.65;100.00;96470.84;4923310;28;20258;-66
2021/12/04 08:16:03;;;;;;;5.03;4.63;;;;;;;-0.43;100.00;96474.22;4955318;28;20214;-68
2021/12/04 08:18:37;;;;;;;5.83;5.43;;;;;;;-0.56;100.00;96463.25;4919757;28;20209;-66
2021/12/04 08:21:08;;;;;;;6.20;5.80;;;;;;;-0.56;100.00;96455.44;4943723;28;20220;-67
2021/12/04 08:23:36;;;;;;;7.40;6.70;;;;;;;-0.47;100.00;96457.22;4947271;28;20229;-66
2021/12/04 08:26:04;;;;;;;16.20;14.70;;;;;;;-0.46;100.00;96449.28;4948646;28;21072;-68
2021/12/04 08:28:34;;;;;;;7.93;7.33;;;;;;;-0.46;100.00;96457.09;4953042;28;20213;-66
2021/12/04 08:31:02;;;;;;;6.00;5.50;;;;;;;-0.28;100.00;96458.22;4928571;28;20446;-67
2021/12/04 08:33:30;;;;;;;6.17;5.67;;;;;;;-0.26;100.00;96456.31;4957003;28;20307;-66
2021/12/04 08:35:58;;;;;;;4.80;4.50;;;;;;;-0.22;100.00;96455.91;4872844;28;20329;-67
2021/12/04 08:38:26;;;;;;;5.70;5.20;;;;;;;-0.21;100.00;96459.34;4955735;28;20345;-67
2021/12/04 08:40:55;;;;;;;5.37;4.90;;;;;;;-0.17;100.00;96455.53;4956568;28;20494;-67
2021/12/04 08:43:23;;;;;;;6.27;5.77;;;;;;;-0.10;100.00;96456.63;4938720;28;20242;-68
2021/12/04 08:46:00;;;;;;;15.67;13.17;;;;;;;-0.09;100.00;96460.88;4939502;28;20431;-67
2021/12/04 08:48:30;;;;;;;6.90;6.40;;;;;;;-0.05;100.00;96458.81;4931593;28;20221;-67
2021/12/04 08:50:59;;;;;;;5.33;4.93;;;;;;;0.09;100.00;96455.81;4903055;28;20318;-68
2021/12/04 08:53:28;;;;;;;4.63;4.33;;;;;;;0.02;100.00;96451.28;4955873;28;20202;-67
2021/12/04 08:55:56;;;;;;;10.90;5.37;;;;;;;0.07;100.00;96457.75;4941442;28;20214;-68
2021/12/04 08:58:25;;;;;;;5.50;5.00;;;;;;;0.19;100.00;96450.63;4961652;28;20216;-69
2021/12/04 09:00:56;;;;;;;5.30;4.90;;;;;;;0.07;100.00;96449.09;4931714;28;20222;-67
2021/12/04 09:03:28;;;;;;;4.77;4.40;;;;;;;0.16;100.00;96456.09;4956534;28;20750;-67
2021/12/04 09:05:57;;;;;;;5.27;4.73;;;;;;;0.21;100.00;96451.31;4930535;28;20218;-68
2021/12/04 09:08:27;;;;;;;5.03;4.63;;;;;;;0.31;100.00;96455.69;4905749;28;20229;-69
2021/12/04 09:10:57;;;;;;;5.40;4.87;;;;;;;0.31;100.00;96451.28;4956158;28;20331;-68
2021/12/04 09:13:28;;;;;;;4.67;4.37;;;;;;;0.30;100.00;96446.22;4934579;28;20220;-67
2021/12/04 09:15:57;;;;;;;4.07;3.87;;;;;;;0.22;100.00;96447.75;4929268;28;20741;-69
2021/12/04 09:18:27;;;;;;;4.30;3.90;;;;;;;0.24;100.00;96448.44;4935837;28;20217;-67
2021/12/04 09:20:57;;;;;;;4.27;3.97;;;;;;;0.30;100.00;96444.44;4954593;28;20201;-69
2021/12/04 09:23:30;;;;;;;4.53;4.23;;;;;;;0.19;100.00;96442.81;4906115;28;20233;-66
2021/12/04 09:26:02;;;;;;;5.03;4.73;;;;;;;0.27;100.00;96437.72;4944572;28;20324;-67
2021/12/04 09:28:39;;;;;;;4.93;4.57;;;;;;;0.41;100.00;96438.25;4961214;28;20206;-66
2021/12/04 09:34:06;;;;;;;8.90;8.10;;;;;;;0.35;100.00;96428.41;4939728;28;20224;-67
2021/12/04 10:01:43;;;;;;;5.03;4.73;;;;;;;0.77;100.00;96395.94;4905569;28;20222;-67
2021/12/04 10:18:59;;;;;;;4.90;4.50;;;;;;;1.01;100.00;96366.75;4940471;28;20201;-68
2021/12/04 10:21:53;;;;;;;5.30;4.90;;;;;;;1.13;100.00;96365.59;4957271;28;20209;-67
2021/12/04 10:32:56;;;;;;;5.47;5.07;;;;;;;1.28;100.00;96334.63;4975488;28;20221;-67
2021/12/04 10:35:25;;;;;;;6.83;6.23;;;;;;;1.32;100.00;96329.91;4920098;28;20228;-67
2021/12/04 10:37:57;;;;;;;4.80;4.47;;;;;;;1.39;100.00;96337.97;4966201;28;20607;-68
2021/12/04 10:40:35;;;;;;;4.30;4.00;;;;;;;1.39;100.00;96330.16;4890682;28;20217;-67
2021/12/04 10:43:05;;;;;;;4.33;4.03;;;;;;;1.34;100.00;96322.78;4973481;28;20658;-67
2021/12/04 10:45:37;;;;;;;4.80;4.40;;;;;;;1.36;100.00;96318.22;4946821;28;20204;-70
2021/12/04 10:48:09;;;;;;;6.53;5.97;;;;;;;1.46;100.00;96319.94;4952849;28;20212;-71
2021/12/04 10:50:45;;;;;;;7.67;6.83;;;;;;;1.36;100.00;96304.34;4934774;28;20406;-71
2021/12/04 10:53:20;;;;;;;8.87;8.00;;;;;;;1.37;100.00;96300.75;4946502;28;20213;-70
2021/12/04 10:55:53;;;;;;;14.90;13.17;;;;;;;1.43;100.00;96301.00;4911433;28;20216;-71
2021/12/04 10:59:03;;;;;;;12.73;11.50;;;;;;;1.53;100.00;96284.44;4966273;28;20245;-71
2021/12/04 11:01:47;;;;;;;6.90;6.40;;;;;;;1.58;100.00;96276.97;4958558;28;20573;-71
2021/12/04 11:04:24;;;;;;;5.97;5.57;;;;;;;1.62;100.00;96273.09;4975841;28;20228;-72
2021/12/04 11:07:16;;;;;;;7.10;6.60;;;;;;;1.63;100.00;96268.69;4965746;28;20389;-71
2021/12/04 11:26:56;;;;;;;6.10;5.60;;;;;;;1.61;100.00;96266.22;4931516;28;20220;-69
2021/12/04 11:38:12;;;;;;;5.53;5.13;;;;;;;1.60;100.00;96248.91;4958421;28;20310;-71
2021/12/04 11:43:41;;;;;;;5.97;5.47;;;;;;;1.48;100.00;96234.47;4915132;28;21058;-70
2021/12/04 11:46:19;;;;;;;6.30;5.77;;;;;;;1.48;100.00;96237.06;4951151;28;20204;-69
2021/12/04 11:48:47;;;;;;;6.40;5.80;;;;;;;1.54;100.00;96233.84;4955208;28;20396;-70
2021/12/04 11:51:17;;;;;;;5.67;5.27;;;;;;;1.50;100.00;96235.13;4976285;28;20319;-70
2021/12/04 11:53:46;;;;;;;6.30;5.70;;;;;;;1.50;100.00;96232.53;4962726;28;20221;-70
2021/12/04 11:56:16;;;;;;;6.27;5.77;;;;;;;1.47;100.00;96232.81;4947464;28;20228;-70
2021/12/04 11:58:46;;;;;;;7.10;6.50;;;;;;;1.44;100.00;96226.09;4934444;28;20212;-69
2021/12/04 12:01:31;;;;;;;6.67;6.10;;;;;;;1.50;100.00;96214.25;4927968;28;20318;-69
2021/12/04 12:04:02;;;;;;;6.87;6.27;;;;;;;1.56;100.00;96211.03;4978067;28;20284;-68
2021/12/04 12:06:36;;;;;;;6.10;5.60;;;;;;;1.61;100.00;96206.16;4951512;28;20584;-69
2021/12/04 12:09:15;;;;;;;6.77;6.27;;;;;;;1.58;100.00;96201.25;4947909;28;20208;-69
2021/12/04 12:11:49;;;;;;;6.03;5.47;;;;;;;1.60;100.00;96196.69;4953887;28;20211;-70
2021/12/04 12:14:21;;;;;;;6.50;5.93;;;;;;;1.59;100.00;96192.44;4912968;28;20380;-70
2021/12/04 12:16:56;;;;;;;6.17;5.60;;;;;;;1.59;100.00;96185.44;4973053;28;20205;-69
2021/12/04 12:19:27;;;;;;;6.57;5.90;;;;;;;1.59;100.00;96182.00;4959413;28;20686;-70
2021/12/04 12:22:00;;;;;;;7.67;6.97;;;;;;;1.68;100.00;96181.09;4974665;28;20200;-70
2021/12/04 12:27:30;;;;;;;6.43;5.90;;;;;;;1.79;100.00;96171.38;4957656;28;20819;-71
2021/12/04 12:33:04;;;;;;;7.00;6.40;;;;;;;1.84;100.00;96162.09;4973038;28;20206;-70
2021/12/04 12:38:42;;;;;;;6.53;5.93;;;;;;;1.79;100.00;96158.31;4943007;28;20368;-71
2021/12/04 12:41:13;;;;;;;8.13;7.33;;;;;;;1.91;100.00;96143.22;4924384;28;21248;-71
2021/12/04 12:43:46;;;;;;;6.97;5.77;;;;;;;1.92;100.00;96137.00;4939003;28;20263;-71
2021/12/04 12:46:15;;;;;;;5.80;5.30;;;;;;;1.97;100.00;96134.75;4902216;28;20368;-71
2021/12/04 12:48:47;;;;;;;5.80;5.30;;;;;;;1.92;100.00;96124.75;4951175;28;20213;-70
2021/12/04 12:51:16;;;;;;;6.17;5.60;;;;;;;2.02;100.00;96122.03;4978363;28;20581;-72
2021/12/04 12:53:46;;;;;;;7.00;6.30;;;;;;;2.03;100.00;96123.66;4957893;28;20238;-68
2021/12/04 12:56:16;;;;;;;5.90;5.40;;;;;;;2.09;100.00;96127.47;4933762;28;20406;-68
2021/12/04 12:58:49;;;;;;;6.67;6.03;;;;;;;2.08;100.00;96126.63;4977691;28;20211;-67
2021/12/04 13:13:24;;;;;;;6.63;6.13;;;;;;;2.06;100.00;96114.69;4933132;28;20224;-66
2021/12/04 13:15:54;;;;;;;6.30;5.80;;;;;;;1.96;100.00;96118.22;4983285;28;20205;-66
2021/12/04 13:18:23;;;;;;;7.63;6.93;;;;;;;1.96;100.00;96109.59;4913757;28;20935;-67
2021/12/04 13:20:54;;;;;;;6.70;6.10;;;;;;;2.03;100.00;96110.59;4979101;28;20205;-66
2021/12/04 13:23:23;;;;;;;6.37;5.77;;;;;;;2.19;100.00;96111.63;4981844;28;20679;-66
2021/12/04 13:25:52;;;;;;;6.00;5.50;;;;;;;2.04;100.00;96104.41;4945635;28;20726;-66
2021/12/04 13:28:22;;;;;;;6.03;5.57;;;;;;;2.08;100.00;96110.13;4974060;28;20212;-66
2021/12/04 13:30:51;;;;;;;6.10;5.47;;;;;;;2.09;100.00;96101.31;4950106;28;20205;-66
2021/12/04 13:33:19;;;;;;;5.70;5.30;;;;;;;2.10;100.00;96105.56;4923692;28;20240;-66
2021/12/04 13:35:48;;;;;;;5.83;5.33;;;;;;;2.06;100.00;96101.63;4948939;28;20225;-66
2021/12/04 13:38:18;;;;;;;7.23;6.00;;;;;;;2.00;100.00;96101.28;4950612;28;20233;-67
2021/12/04 13:40:48;;;;;;;6.47;5.97;;;;;;;1.92;100.00;96106.47;4945396;28;20465;-68
2021/12/04 13:43:19;;;;;;;6.07;5.47;;;;;;;1.99;100.00;96104.06;4957290;28;20221;-67
2021/12/04 13:45:47;;;;;;;6.10;5.50;;;;;;;1.94;100.00;96101.09;4961012;28;20467;-68
2021/12/04 13:48:16;;;;;;;6.93;6.33;;;;;;;1.92;100.00;96096.00;4904668;28;20213;-66
2021/12/04 13:50:47;;;;;;;6.93;6.23;;;;;;;1.91;100.00;96090.97;4945645;28;20535;-66
2021/12/04 13:53:19;;;;;;;7.87;6.67;;;;;;;1.89;100.00;96083.25;4953156;28;20216;-66
2021/12/04 13:55:52;;;;;;;7.47;6.77;;;;;;;1.88;100.00;96079.03;4974476;28;20740;-68
2021/12/04 13:58:20;;;;;;;9.27;7.20;;;;;;;1.89;100.00;96083.25;4956189;28;20458;-66
2021/12/04 14:00:48;;;;;;;6.77;6.20;;;;;;;1.82;100.00;96079.66;4957168;28;20569;-67
2021/12/04 14:03:22;;;;;;;7.13;6.47;;;;;;;1.87;100.00;96077.38;4953594;28;20209;-65
2021/12/04 14:05:50;;;;;;;7.40;6.80;;;;;;;1.84;100.00;96073.28;4962060;28;20225;-68
2021/12/04 14:08:20;;;;;;;8.13;7.33;;;;;;;1.87;100.00;96067.72;4954828;28;20216;-66
2021/12/04 14:10:49;;;;;;;7.13;6.47;;;;;;;1.85;100.00;96074.09;4977509;28;20275;-66
2021/12/04 14:13:20;;;;;;;7.13;6.53;;;;;;;1.85;100.00;96069.69;4967160;28;20219;-66
2021/12/04 14:15:50;;;;;;;7.40;6.80;;;;;;;1.94;100.00;96069.75;4955586;28;20569;-67
2021/12/04 14:18:22;;;;;;;6.77;6.20;;;;;;;1.83;100.00;96066.41;4945052;28;20624;-66
2021/12/04 14:20:53;;;;;;;12.23;7.07;;;;;;;1.98;100.00;96065.84;4979048;28;20295;-66